sensor_id;sensor_type;location;lat;lon;timestamp;P1;durP1;ratioP1;P2;durP2;ratioP2
55461;SDS011;41327;45.102;20.624;2024-03-07T00:00:11;17.23;;;8.40;;
55461;SDS011;41327;45.102;20.624;2024-03-07T00:02:48;15.85;;;8.20;;
55461;SDS011;41327;45.102;20.624;2024-03-07T00:05:15;14.65;;;7.50;;
55461;SDS011;41327;45.102;20.624;2024-03-07T00:07:41;16.17;;;8.18;;
55461;SDS011;41327;45.102;20.624;2024-03-07T00:10:07;14.85;;;7.63;;
55461;SDS011;41327;45.102;20.624;2024-03-07T00:12:34;18.40;;;8.20;;
55461;SDS011;41327;45.102;20.624;2024-03-07T00:15:01;13.25;;;7.05;;
55461;SDS011;41327;45.102;20.624;2024-03-07T00:17:30;12.05;;;7.25;;
55461;SDS011;41327;45.102;20.624;2024-03-07T00:19:55;16.88;;;7.70;;
55461;SDS011;41327;45.102;20.624;2024-03-07T00:22:21;15.40;;;7.25;;
55461;SDS011;41327;45.102;20.624;2024-03-07T00:24:47;13.20;;;6.80;;
55461;SDS011;41327;45.102;20.624;2024-03-07T00:27:13;14.60;;;6.47;;
55461;SDS011;41327;45.102;20.624;2024-03-07T00:29:42;14.93;;;6.97;;
55461;SDS011;41327;45.102;20.624;2024-03-07T00:32:08;16.38;;;7.55;;
55461;SDS011;41327;45.102;20.624;2024-03-07T00:34:34;10.23;;;6.13;;
55461;SDS011;41327;45.102;20.624;2024-03-07T00:36:59;13.88;;;6.13;;
55461;SDS011;41327;45.102;20.624;2024-03-07T00:39:25;12.38;;;6.40;;
55461;SDS011;41327;45.102;20.624;2024-03-07T00:41:51;16.58;;;7.55;;
55461;SDS011;41327;45.102;20.624;2024-03-07T00:44:16;17.40;;;7.55;;
55461;SDS011;41327;45.102;20.624;2024-03-07T00:46:42;11.35;;;6.10;;
55461;SDS011;41327;45.102;20.624;2024-03-07T00:49:07;15.80;;;7.88;;
55461;SDS011;41327;45.102;20.624;2024-03-07T00:51:33;12.82;;;6.90;;
55461;SDS011;41327;45.102;20.624;2024-03-07T00:53:59;12.05;;;7.38;;
55461;SDS011;41327;45.102;20.624;2024-03-07T00:56:25;13.43;;;6.93;;
55461;SDS011;41327;45.102;20.624;2024-03-07T00:58:50;12.50;;;6.82;;
55461;SDS011;41327;45.102;20.624;2024-03-07T01:01:16;12.90;;;7.65;;
55461;SDS011;41327;45.102;20.624;2024-03-07T01:03:44;14.60;;;7.07;;
55461;SDS011;41327;45.102;20.624;2024-03-07T01:06:09;14.95;;;6.95;;
55461;SDS011;41327;45.102;20.624;2024-03-07T01:08:35;13.43;;;6.53;;
55461;SDS011;41327;45.102;20.624;2024-03-07T01:11:04;13.85;;;6.88;;
55461;SDS011;41327;45.102;20.624;2024-03-07T01:13:40;14.98;;;7.82;;
55461;SDS011;41327;45.102;20.624;2024-03-07T01:16:06;12.48;;;6.68;;
55461;SDS011;41327;45.102;20.624;2024-03-07T01:18:31;14.25;;;6.63;;
55461;SDS011;41327;45.102;20.624;2024-03-07T01:21:03;13.68;;;7.07;;
55461;SDS011;41327;45.102;20.624;2024-03-07T01:23:29;15.20;;;6.57;;
55461;SDS011;41327;45.102;20.624;2024-03-07T01:25:56;13.05;;;7.40;;
55461;SDS011;41327;45.102;20.624;2024-03-07T01:28:23;12.70;;;6.53;;
55461;SDS011;41327;45.102;20.624;2024-03-07T01:30:49;13.43;;;7.35;;
55461;SDS011;41327;45.102;20.624;2024-03-07T01:33:15;13.10;;;6.38;;
55461;SDS011;41327;45.102;20.624;2024-03-07T01:35:41;13.95;;;6.97;;
55461;SDS011;41327;45.102;20.624;2024-03-07T01:38:06;13.00;;;6.65;;
55461;SDS011;41327;45.102;20.624;2024-03-07T01:40:33;11.98;;;6.80;;
55461;SDS011;41327;45.102;20.624;2024-03-07T01:43:01;12.90;;;6.85;;
55461;SDS011;41327;45.102;20.624;2024-03-07T01:45:27;12.65;;;6.22;;
55461;SDS011;41327;45.102;20.624;2024-03-07T01:47:53;11.93;;;6.50;;
55461;SDS011;41327;45.102;20.624;2024-03-07T01:50:20;13.13;;;6.68;;
55461;SDS011;41327;45.102;20.624;2024-03-07T01:52:46;11.73;;;5.90;;
55461;SDS011;41327;45.102;20.624;2024-03-07T01:55:12;12.07;;;6.05;;
55461;SDS011;41327;45.102;20.624;2024-03-07T01:57:38;7.97;;;5.43;;
55461;SDS011;41327;45.102;20.624;2024-03-07T02:00:04;14.65;;;6.55;;
55461;SDS011;41327;45.102;20.624;2024-03-07T02:02:32;9.15;;;5.53;;
55461;SDS011;41327;45.102;20.624;2024-03-07T02:04:58;10.25;;;5.95;;
55461;SDS011;41327;45.102;20.624;2024-03-07T02:07:23;10.10;;;6.05;;
55461;SDS011;41327;45.102;20.624;2024-03-07T02:09:49;8.27;;;5.28;;
55461;SDS011;41327;45.102;20.624;2024-03-07T02:12:14;9.75;;;5.40;;
55461;SDS011;41327;45.102;20.624;2024-03-07T02:14:40;10.05;;;5.82;;
55461;SDS011;41327;45.102;20.624;2024-03-07T02:17:05;10.10;;;5.88;;
55461;SDS011;41327;45.102;20.624;2024-03-07T02:19:31;11.38;;;6.30;;
55461;SDS011;41327;45.102;20.624;2024-03-07T02:21:57;9.48;;;5.95;;
55461;SDS011;41327;45.102;20.624;2024-03-07T02:24:24;10.30;;;5.28;;
55461;SDS011;41327;45.102;20.624;2024-03-07T02:26:50;12.27;;;5.35;;
55461;SDS011;41327;45.102;20.624;2024-03-07T02:29:15;10.25;;;5.75;;
55461;SDS011;41327;45.102;20.624;2024-03-07T02:31:41;8.02;;;5.22;;
55461;SDS011;41327;45.102;20.624;2024-03-07T02:34:06;7.53;;;4.40;;
55461;SDS011;41327;45.102;20.624;2024-03-07T02:36:35;7.88;;;5.28;;
55461;SDS011;41327;45.102;20.624;2024-03-07T02:39:00;9.45;;;4.95;;
55461;SDS011;41327;45.102;20.624;2024-03-07T02:41:26;10.70;;;5.13;;
55461;SDS011;41327;45.102;20.624;2024-03-07T02:43:51;6.93;;;5.00;;
55461;SDS011;41327;45.102;20.624;2024-03-07T02:46:18;11.18;;;4.65;;
55461;SDS011;41327;45.102;20.624;2024-03-07T02:48:44;9.07;;;4.18;;
55461;SDS011;41327;45.102;20.624;2024-03-07T02:51:10;9.48;;;4.47;;
55461;SDS011;41327;45.102;20.624;2024-03-07T02:53:36;6.90;;;3.67;;
55461;SDS011;41327;45.102;20.624;2024-03-07T02:56:03;6.68;;;3.90;;
55461;SDS011;41327;45.102;20.624;2024-03-07T02:58:33;6.50;;;3.75;;
55461;SDS011;41327;45.102;20.624;2024-03-07T03:00:58;7.78;;;4.05;;
55461;SDS011;41327;45.102;20.624;2024-03-07T03:03:25;7.45;;;4.00;;
55461;SDS011;41327;45.102;20.624;2024-03-07T03:05:56;7.65;;;4.75;;
55461;SDS011;41327;45.102;20.624;2024-03-07T03:08:22;9.18;;;4.65;;
55461;SDS011;41327;45.102;20.624;2024-03-07T03:10:49;6.57;;;4.00;;
55461;SDS011;41327;45.102;20.624;2024-03-07T03:13:16;8.02;;;4.63;;
55461;SDS011;41327;45.102;20.624;2024-03-07T03:15:42;6.50;;;3.88;;
55461;SDS011;41327;45.102;20.624;2024-03-07T03:18:08;7.80;;;4.43;;
55461;SDS011;41327;45.102;20.624;2024-03-07T03:20:35;7.00;;;4.22;;
55461;SDS011;41327;45.102;20.624;2024-03-07T03:23:05;6.22;;;4.30;;
55461;SDS011;41327;45.102;20.624;2024-03-07T03:25:31;4.95;;;3.58;;
55461;SDS011;41327;45.102;20.624;2024-03-07T03:28:02;6.03;;;3.95;;
55461;SDS011;41327;45.102;20.624;2024-03-07T03:30:29;9.93;;;4.75;;
55461;SDS011;41327;45.102;20.624;2024-03-07T03:32:55;7.88;;;3.30;;
55461;SDS011;41327;45.102;20.624;2024-03-07T03:35:20;8.52;;;4.53;;
55461;SDS011;41327;45.102;20.624;2024-03-07T03:37:46;4.35;;;3.47;;
55461;SDS011;41327;45.102;20.624;2024-03-07T03:40:12;8.88;;;4.10;;
55461;SDS011;41327;45.102;20.624;2024-03-07T03:42:38;7.35;;;3.83;;
55461;SDS011;41327;45.102;20.624;2024-03-07T03:45:04;5.85;;;4.05;;
55461;SDS011;41327;45.102;20.624;2024-03-07T03:47:34;5.63;;;3.42;;
55461;SDS011;41327;45.102;20.624;2024-03-07T03:50:06;6.88;;;3.63;;
55461;SDS011;41327;45.102;20.624;2024-03-07T03:52:33;7.35;;;3.40;;
55461;SDS011;41327;45.102;20.624;2024-03-07T03:55:00;7.05;;;3.65;;
55461;SDS011;41327;45.102;20.624;2024-03-07T03:57:27;4.15;;;2.97;;
55461;SDS011;41327;45.102;20.624;2024-03-07T03:59:53;5.60;;;3.28;;
55461;SDS011;41327;45.102;20.624;2024-03-07T04:02:20;6.82;;;3.70;;
55461;SDS011;41327;45.102;20.624;2024-03-07T04:04:47;4.35;;;2.85;;
55461;SDS011;41327;45.102;20.624;2024-03-07T04:07:17;6.35;;;3.47;;
55461;SDS011;41327;45.102;20.624;2024-03-07T04:09:43;8.35;;;3.05;;
55461;SDS011;41327;45.102;20.624;2024-03-07T04:12:10;4.78;;;3.15;;
55461;SDS011;41327;45.102;20.624;2024-03-07T04:14:41;6.90;;;3.63;;
55461;SDS011;41327;45.102;20.624;2024-03-07T04:17:10;4.72;;;3.00;;
55461;SDS011;41327;45.102;20.624;2024-03-07T04:19:39;5.72;;;3.15;;
55461;SDS011;41327;45.102;20.624;2024-03-07T04:22:05;7.80;;;3.20;;
55461;SDS011;41327;45.102;20.624;2024-03-07T04:24:31;5.72;;;3.65;;
55461;SDS011;41327;45.102;20.624;2024-03-07T04:27:00;4.28;;;2.97;;
55461;SDS011;41327;45.102;20.624;2024-03-07T04:29:28;3.78;;;2.80;;
55461;SDS011;41327;45.102;20.624;2024-03-07T04:32:00;5.03;;;3.33;;
55461;SDS011;41327;45.102;20.624;2024-03-07T04:34:27;6.07;;;3.70;;
55461;SDS011;41327;45.102;20.624;2024-03-07T04:36:56;6.13;;;3.20;;
55461;SDS011;41327;45.102;20.624;2024-03-07T04:39:23;4.45;;;3.10;;
55461;SDS011;41327;45.102;20.624;2024-03-07T04:41:55;7.93;;;3.88;;
55461;SDS011;41327;45.102;20.624;2024-03-07T04:44:21;5.45;;;3.28;;
55461;SDS011;41327;45.102;20.624;2024-03-07T04:46:50;4.47;;;2.38;;
55461;SDS011;41327;45.102;20.624;2024-03-07T04:49:20;5.53;;;3.20;;
55461;SDS011;41327;45.102;20.624;2024-03-07T04:51:48;5.03;;;3.40;;
55461;SDS011;41327;45.102;20.624;2024-03-07T04:54:14;6.90;;;3.38;;
55461;SDS011;41327;45.102;20.624;2024-03-07T04:56:40;6.90;;;3.35;;
55461;SDS011;41327;45.102;20.624;2024-03-07T04:59:06;6.47;;;3.38;;
55461;SDS011;41327;45.102;20.624;2024-03-07T05:01:31;5.10;;;3.60;;
55461;SDS011;41327;45.102;20.624;2024-03-07T05:03:57;4.20;;;3.10;;
55461;SDS011;41327;45.102;20.624;2024-03-07T05:06:22;4.97;;;3.15;;
55461;SDS011;41327;45.102;20.624;2024-03-07T05:08:48;4.25;;;2.70;;
55461;SDS011;41327;45.102;20.624;2024-03-07T05:11:13;5.75;;;3.00;;
55461;SDS011;41327;45.102;20.624;2024-03-07T05:13:39;5.05;;;2.95;;
55461;SDS011;41327;45.102;20.624;2024-03-07T05:16:07;5.30;;;3.15;;
55461;SDS011;41327;45.102;20.624;2024-03-07T05:18:33;4.45;;;2.80;;
55461;SDS011;41327;45.102;20.624;2024-03-07T05:20:58;3.45;;;2.58;;
55461;SDS011;41327;45.102;20.624;2024-03-07T05:23:44;6.82;;;3.47;;
55461;SDS011;41327;45.102;20.624;2024-03-07T05:26:09;4.38;;;3.03;;
55461;SDS011;41327;45.102;20.624;2024-03-07T05:28:35;4.38;;;2.70;;
55461;SDS011;41327;45.102;20.624;2024-03-07T05:31:01;3.63;;;2.63;;
55461;SDS011;41327;45.102;20.624;2024-03-07T05:33:29;5.30;;;3.53;;
55461;SDS011;41327;45.102;20.624;2024-03-07T05:35:54;4.85;;;2.88;;
55461;SDS011;41327;45.102;20.624;2024-03-07T05:38:27;7.15;;;3.08;;
55461;SDS011;41327;45.102;20.624;2024-03-07T05:40:53;3.90;;;2.65;;
55461;SDS011;41327;45.102;20.624;2024-03-07T05:43:19;4.43;;;3.45;;
55461;SDS011;41327;45.102;20.624;2024-03-07T05:45:44;6.95;;;3.45;;
55461;SDS011;41327;45.102;20.624;2024-03-07T05:48:16;4.45;;;2.67;;
55461;SDS011;41327;45.102;20.624;2024-03-07T05:50:42;4.22;;;2.38;;
55461;SDS011;41327;45.102;20.624;2024-03-07T05:53:08;4.20;;;2.72;;
55461;SDS011;41327;45.102;20.624;2024-03-07T05:55:33;4.43;;;2.67;;
55461;SDS011;41327;45.102;20.624;2024-03-07T05:57:59;6.63;;;2.55;;
55461;SDS011;41327;45.102;20.624;2024-03-07T06:00:24;5.85;;;3.35;;
55461;SDS011;41327;45.102;20.624;2024-03-07T06:02:53;5.15;;;3.05;;
55461;SDS011;41327;45.102;20.624;2024-03-07T06:05:19;3.47;;;2.42;;
55461;SDS011;41327;45.102;20.624;2024-03-07T06:07:44;5.35;;;3.30;;
55461;SDS011;41327;45.102;20.624;2024-03-07T06:10:12;4.63;;;3.15;;
55461;SDS011;41327;45.102;20.624;2024-03-07T06:12:38;3.85;;;3.20;;
55461;SDS011;41327;45.102;20.624;2024-03-07T06:15:10;5.30;;;2.92;;
55461;SDS011;41327;45.102;20.624;2024-03-07T06:17:36;4.18;;;2.92;;
55461;SDS011;41327;45.102;20.624;2024-03-07T06:20:02;4.57;;;3.20;;
55461;SDS011;41327;45.102;20.624;2024-03-07T06:22:27;4.30;;;2.78;;
55461;SDS011;41327;45.102;20.624;2024-03-07T06:24:53;7.88;;;3.35;;
55461;SDS011;41327;45.102;20.624;2024-03-07T06:27:18;5.40;;;3.28;;
55461;SDS011;41327;45.102;20.624;2024-03-07T06:30:02;4.45;;;3.03;;
55461;SDS011;41327;45.102;20.624;2024-03-07T06:32:28;4.32;;;3.00;;
55461;SDS011;41327;45.102;20.624;2024-03-07T06:34:54;5.57;;;3.35;;
55461;SDS011;41327;45.102;20.624;2024-03-07T06:37:26;5.63;;;2.90;;
55461;SDS011;41327;45.102;20.624;2024-03-07T06:39:52;5.20;;;3.20;;
55461;SDS011;41327;45.102;20.624;2024-03-07T06:42:18;7.57;;;3.42;;
55461;SDS011;41327;45.102;20.624;2024-03-07T06:44:43;4.32;;;3.35;;
55461;SDS011;41327;45.102;20.624;2024-03-07T06:47:09;5.72;;;3.90;;
55461;SDS011;41327;45.102;20.624;2024-03-07T06:49:34;7.00;;;4.00;;
55461;SDS011;41327;45.102;20.624;2024-03-07T06:52:00;8.30;;;3.72;;
55461;SDS011;41327;45.102;20.624;2024-03-07T06:54:26;5.68;;;3.78;;
55461;SDS011;41327;45.102;20.624;2024-03-07T06:56:51;6.13;;;4.10;;
55461;SDS011;41327;45.102;20.624;2024-03-07T06:59:17;6.07;;;3.88;;
55461;SDS011;41327;45.102;20.624;2024-03-07T07:01:44;7.00;;;3.60;;
55461;SDS011;41327;45.102;20.624;2024-03-07T07:04:10;7.78;;;3.83;;
55461;SDS011;41327;45.102;20.624;2024-03-07T07:06:38;6.35;;;4.70;;
55461;SDS011;41327;45.102;20.624;2024-03-07T07:09:03;6.70;;;4.20;;
55461;SDS011;41327;45.102;20.624;2024-03-07T07:11:31;5.68;;;3.40;;
55461;SDS011;41327;45.102;20.624;2024-03-07T07:13:56;7.75;;;3.78;;
55461;SDS011;41327;45.102;20.624;2024-03-07T07:16:21;7.20;;;4.10;;
55461;SDS011;41327;45.102;20.624;2024-03-07T07:18:47;9.10;;;4.60;;
55461;SDS011;41327;45.102;20.624;2024-03-07T07:21:12;7.93;;;3.80;;
55461;SDS011;41327;45.102;20.624;2024-03-07T07:23:41;6.07;;;4.15;;
55461;SDS011;41327;45.102;20.624;2024-03-07T07:26:06;5.13;;;3.60;;
55461;SDS011;41327;45.102;20.624;2024-03-07T07:28:32;9.00;;;4.05;;
55461;SDS011;41327;45.102;20.624;2024-03-07T07:30:58;6.22;;;3.95;;
55461;SDS011;41327;45.102;20.624;2024-03-07T07:33:23;7.60;;;4.07;;
55461;SDS011;41327;45.102;20.624;2024-03-07T07:35:49;7.95;;;4.15;;
55461;SDS011;41327;45.102;20.624;2024-03-07T07:38:14;15.55;;;6.47;;
55461;SDS011;41327;45.102;20.624;2024-03-07T07:40:40;10.80;;;5.80;;
55461;SDS011;41327;45.102;20.624;2024-03-07T07:43:06;8.68;;;5.15;;
55461;SDS011;41327;45.102;20.624;2024-03-07T07:45:32;12.88;;;6.32;;
55461;SDS011;41327;45.102;20.624;2024-03-07T07:48:00;8.65;;;4.80;;
55461;SDS011;41327;45.102;20.624;2024-03-07T07:50:26;8.77;;;4.63;;
55461;SDS011;41327;45.102;20.624;2024-03-07T07:52:53;6.75;;;4.22;;
55461;SDS011;41327;45.102;20.624;2024-03-07T07:55:28;5.85;;;3.30;;
55461;SDS011;41327;45.102;20.624;2024-03-07T07:57:55;8.77;;;4.18;;
55461;SDS011;41327;45.102;20.624;2024-03-07T08:00:25;6.05;;;4.00;;
55461;SDS011;41327;45.102;20.624;2024-03-07T08:05:20;10.13;;;4.93;;
55461;SDS011;41327;45.102;20.624;2024-03-07T08:07:50;11.23;;;4.93;;
55461;SDS011;41327;45.102;20.624;2024-03-07T08:10:17;5.75;;;3.67;;
55461;SDS011;41327;45.102;20.624;2024-03-07T08:12:45;5.78;;;3.50;;
55461;SDS011;41327;45.102;20.624;2024-03-07T08:15:11;6.47;;;3.58;;
55461;SDS011;41327;45.102;20.624;2024-03-07T08:17:41;7.65;;;4.78;;
55461;SDS011;41327;45.102;20.624;2024-03-07T08:20:08;12.07;;;4.43;;
55461;SDS011;41327;45.102;20.624;2024-03-07T08:22:40;7.28;;;4.60;;
55461;SDS011;41327;45.102;20.624;2024-03-07T08:25:10;7.20;;;4.22;;
55461;SDS011;41327;45.102;20.624;2024-03-07T08:27:39;5.18;;;3.33;;
55461;SDS011;41327;45.102;20.624;2024-03-07T08:30:06;7.65;;;4.03;;
55461;SDS011;41327;45.102;20.624;2024-03-07T08:32:36;6.80;;;4.25;;
55461;SDS011;41327;45.102;20.624;2024-03-07T08:35:03;7.15;;;3.38;;
55461;SDS011;41327;45.102;20.624;2024-03-07T08:37:41;5.90;;;3.22;;
55461;SDS011;41327;45.102;20.624;2024-03-07T08:40:10;7.03;;;3.78;;
55461;SDS011;41327;45.102;20.624;2024-03-07T08:42:44;5.20;;;3.03;;
55461;SDS011;41327;45.102;20.624;2024-03-07T08:45:10;5.00;;;3.42;;
55461;SDS011;41327;45.102;20.624;2024-03-07T08:47:36;8.50;;;3.45;;
55461;SDS011;41327;45.102;20.624;2024-03-07T08:50:03;5.85;;;3.15;;
55461;SDS011;41327;45.102;20.624;2024-03-07T08:52:33;7.38;;;3.92;;
55461;SDS011;41327;45.102;20.624;2024-03-07T08:55:02;8.75;;;3.45;;
55461;SDS011;41327;45.102;20.624;2024-03-07T08:57:27;3.80;;;2.63;;
55461;SDS011;41327;45.102;20.624;2024-03-07T08:59:53;3.13;;;2.40;;
55461;SDS011;41327;45.102;20.624;2024-03-07T09:02:19;5.60;;;2.95;;
55461;SDS011;41327;45.102;20.624;2024-03-07T09:04:44;3.63;;;1.98;;
55461;SDS011;41327;45.102;20.624;2024-03-07T09:07:10;2.67;;;1.92;;
55461;SDS011;41327;45.102;20.624;2024-03-07T09:09:35;4.65;;;2.42;;
55461;SDS011;41327;45.102;20.624;2024-03-07T09:12:01;3.03;;;2.05;;
55461;SDS011;41327;45.102;20.624;2024-03-07T09:14:28;4.65;;;2.10;;
55461;SDS011;41327;45.102;20.624;2024-03-07T09:16:53;4.30;;;2.85;;
55461;SDS011;41327;45.102;20.624;2024-03-07T09:19:19;4.47;;;2.25;;
55461;SDS011;41327;45.102;20.624;2024-03-07T09:21:51;2.75;;;2.13;;
55461;SDS011;41327;45.102;20.624;2024-03-07T09:24:18;3.72;;;2.03;;
55461;SDS011;41327;45.102;20.624;2024-03-07T09:26:46;3.45;;;2.00;;
55461;SDS011;41327;45.102;20.624;2024-03-07T09:29:15;3.05;;;1.95;;
55461;SDS011;41327;45.102;20.624;2024-03-07T09:31:42;3.17;;;1.60;;
55461;SDS011;41327;45.102;20.624;2024-03-07T09:34:08;4.25;;;2.00;;
55461;SDS011;41327;45.102;20.624;2024-03-07T09:36:34;2.60;;;2.03;;
55461;SDS011;41327;45.102;20.624;2024-03-07T09:38:59;3.80;;;1.73;;
55461;SDS011;41327;45.102;20.624;2024-03-07T09:41:26;4.25;;;1.95;;
55461;SDS011;41327;45.102;20.624;2024-03-07T09:43:52;4.70;;;1.83;;
55461;SDS011;41327;45.102;20.624;2024-03-07T09:46:23;2.28;;;1.73;;
55461;SDS011;41327;45.102;20.624;2024-03-07T09:48:49;2.58;;;2.00;;
55461;SDS011;41327;45.102;20.624;2024-03-07T09:51:22;2.20;;;1.75;;
55461;SDS011;41327;45.102;20.624;2024-03-07T09:53:51;2.20;;;1.95;;
55461;SDS011;41327;45.102;20.624;2024-03-07T09:56:21;2.83;;;1.75;;
55461;SDS011;41327;45.102;20.624;2024-03-07T09:58:48;2.80;;;2.17;;
55461;SDS011;41327;45.102;20.624;2024-03-07T10:01:17;3.78;;;1.55;;
55461;SDS011;41327;45.102;20.624;2024-03-07T10:03:45;3.42;;;1.90;;
55461;SDS011;41327;45.102;20.624;2024-03-07T10:06:12;2.72;;;1.85;;
55461;SDS011;41327;45.102;20.624;2024-03-07T10:08:38;3.03;;;2.03;;
55461;SDS011;41327;45.102;20.624;2024-03-07T10:11:05;3.47;;;1.77;;
55461;SDS011;41327;45.102;20.624;2024-03-07T10:13:33;2.97;;;1.55;;
55461;SDS011;41327;45.102;20.624;2024-03-07T10:16:00;2.25;;;1.60;;
55461;SDS011;41327;45.102;20.624;2024-03-07T10:18:27;2.97;;;1.83;;
55461;SDS011;41327;45.102;20.624;2024-03-07T10:20:55;1.88;;;1.50;;
55461;SDS011;41327;45.102;20.624;2024-03-07T10:23:21;1.55;;;1.00;;
55461;SDS011;41327;45.102;20.624;2024-03-07T10:25:47;3.20;;;2.10;;
55461;SDS011;41327;45.102;20.624;2024-03-07T10:28:13;2.15;;;1.58;;
55461;SDS011;41327;45.102;20.624;2024-03-07T10:30:40;2.65;;;1.88;;
55461;SDS011;41327;45.102;20.624;2024-03-07T10:33:06;4.22;;;2.38;;
55461;SDS011;41327;45.102;20.624;2024-03-07T10:35:32;1.55;;;1.40;;
55461;SDS011;41327;45.102;20.624;2024-03-07T10:37:58;4.93;;;2.03;;
55461;SDS011;41327;45.102;20.624;2024-03-07T10:40:31;4.45;;;1.48;;
55461;SDS011;41327;45.102;20.624;2024-03-07T10:42:57;3.20;;;1.90;;
55461;SDS011;41327;45.102;20.624;2024-03-07T10:45:28;2.92;;;1.98;;
55461;SDS011;41327;45.102;20.624;2024-03-07T10:47:55;2.47;;;1.70;;
55461;SDS011;41327;45.102;20.624;2024-03-07T10:50:37;2.90;;;1.60;;
55461;SDS011;41327;45.102;20.624;2024-03-07T10:53:24;2.70;;;2.10;;
55461;SDS011;41327;45.102;20.624;2024-03-07T10:58:57;3.88;;;2.45;;
55461;SDS011;41327;45.102;20.624;2024-03-07T11:01:25;3.80;;;1.80;;
55461;SDS011;41327;45.102;20.624;2024-03-07T11:03:51;3.75;;;2.05;;
55461;SDS011;41327;45.102;20.624;2024-03-07T11:06:17;3.08;;;2.22;;
55461;SDS011;41327;45.102;20.624;2024-03-07T11:08:43;2.97;;;2.30;;
55461;SDS011;41327;45.102;20.624;2024-03-07T11:11:09;3.63;;;2.47;;
55461;SDS011;41327;45.102;20.624;2024-03-07T11:13:36;5.63;;;2.75;;
55461;SDS011;41327;45.102;20.624;2024-03-07T11:16:02;3.83;;;2.28;;
55461;SDS011;41327;45.102;20.624;2024-03-07T11:18:29;3.45;;;2.47;;
55461;SDS011;41327;45.102;20.624;2024-03-07T11:20:54;5.22;;;2.40;;
55461;SDS011;41327;45.102;20.624;2024-03-07T11:25:55;7.18;;;3.53;;
55461;SDS011;41327;45.102;20.624;2024-03-07T11:28:28;5.70;;;3.38;;
55461;SDS011;41327;45.102;20.624;2024-03-07T11:30:54;5.00;;;2.60;;
55461;SDS011;41327;45.102;20.624;2024-03-07T11:33:20;3.15;;;2.25;;
55461;SDS011;41327;45.102;20.624;2024-03-07T11:35:48;5.60;;;3.35;;
55461;SDS011;41327;45.102;20.624;2024-03-07T11:38:14;6.72;;;4.00;;
55461;SDS011;41327;45.102;20.624;2024-03-07T11:43:05;4.47;;;3.20;;
55461;SDS011;41327;45.102;20.624;2024-03-07T11:45:31;5.57;;;3.38;;
55461;SDS011;41327;45.102;20.624;2024-03-07T11:48:17;7.35;;;4.13;;
55461;SDS011;41327;45.102;20.624;2024-03-07T11:50:45;6.20;;;4.00;;
55461;SDS011;41327;45.102;20.624;2024-03-07T11:53:11;4.55;;;3.40;;
55461;SDS011;41327;45.102;20.624;2024-03-07T11:55:40;5.78;;;3.40;;
55461;SDS011;41327;45.102;20.624;2024-03-07T11:58:13;5.57;;;3.80;;
55461;SDS011;41327;45.102;20.624;2024-03-07T12:00:44;5.80;;;3.92;;
55461;SDS011;41327;45.102;20.624;2024-03-07T12:03:13;5.22;;;3.78;;
55461;SDS011;41327;45.102;20.624;2024-03-07T12:05:42;5.70;;;3.80;;
55461;SDS011;41327;45.102;20.624;2024-03-07T12:08:08;5.90;;;3.75;;
55461;SDS011;41327;45.102;20.624;2024-03-07T12:10:35;6.22;;;4.20;;
55461;SDS011;41327;45.102;20.624;2024-03-07T12:13:02;6.53;;;3.95;;
55461;SDS011;41327;45.102;20.624;2024-03-07T12:15:28;5.90;;;3.83;;
55461;SDS011;41327;45.102;20.624;2024-03-07T12:17:56;6.72;;;4.25;;
55461;SDS011;41327;45.102;20.624;2024-03-07T12:20:22;7.25;;;4.07;;
55461;SDS011;41327;45.102;20.624;2024-03-07T12:22:59;5.40;;;3.85;;
55461;SDS011;41327;45.102;20.624;2024-03-07T12:25:28;6.05;;;4.00;;
55461;SDS011;41327;45.102;20.624;2024-03-07T12:28:01;7.85;;;3.80;;
55461;SDS011;41327;45.102;20.624;2024-03-07T12:30:38;6.05;;;4.00;;
55461;SDS011;41327;45.102;20.624;2024-03-07T12:33:16;5.07;;;3.63;;
55461;SDS011;41327;45.102;20.624;2024-03-07T12:35:43;5.25;;;3.42;;
55461;SDS011;41327;45.102;20.624;2024-03-07T12:38:09;6.43;;;4.22;;
55461;SDS011;41327;45.102;20.624;2024-03-07T12:40:39;7.75;;;4.28;;
55461;SDS011;41327;45.102;20.624;2024-03-07T12:45:52;4.78;;;3.70;;
55461;SDS011;41327;45.102;20.624;2024-03-07T12:48:19;6.53;;;3.88;;
55461;SDS011;41327;45.102;20.624;2024-03-07T12:50:46;6.05;;;4.25;;
55461;SDS011;41327;45.102;20.624;2024-03-07T12:53:27;7.18;;;4.07;;
55461;SDS011;41327;45.102;20.624;2024-03-07T12:55:54;6.32;;;3.70;;
55461;SDS011;41327;45.102;20.624;2024-03-07T12:58:19;6.72;;;4.15;;
55461;SDS011;41327;45.102;20.624;2024-03-07T13:00:47;5.90;;;3.97;;
55461;SDS011;41327;45.102;20.624;2024-03-07T13:03:12;6.55;;;3.92;;
55461;SDS011;41327;45.102;20.624;2024-03-07T13:05:41;8.70;;;5.03;;
55461;SDS011;41327;45.102;20.624;2024-03-07T13:08:08;8.60;;;4.93;;
55461;SDS011;41327;45.102;20.624;2024-03-07T13:10:46;6.57;;;3.97;;
55461;SDS011;41327;45.102;20.624;2024-03-07T13:13:12;6.55;;;4.25;;
55461;SDS011;41327;45.102;20.624;2024-03-07T13:15:38;5.90;;;4.03;;
55461;SDS011;41327;45.102;20.624;2024-03-07T13:18:07;7.75;;;4.57;;
55461;SDS011;41327;45.102;20.624;2024-03-07T13:20:34;6.93;;;4.63;;
55461;SDS011;41327;45.102;20.624;2024-03-07T13:23:00;5.97;;;3.60;;
55461;SDS011;41327;45.102;20.624;2024-03-07T13:25:28;8.68;;;4.20;;
55461;SDS011;41327;45.102;20.624;2024-03-07T13:30:41;6.72;;;4.53;;
55461;SDS011;41327;45.102;20.624;2024-03-07T13:33:08;7.32;;;5.30;;
55461;SDS011;41327;45.102;20.624;2024-03-07T13:35:37;6.10;;;4.18;;
55461;SDS011;41327;45.102;20.624;2024-03-07T13:38:03;5.45;;;4.05;;
55461;SDS011;41327;45.102;20.624;2024-03-07T13:40:29;7.28;;;4.55;;
55461;SDS011;41327;45.102;20.624;2024-03-07T13:42:56;7.28;;;4.10;;
55461;SDS011;41327;45.102;20.624;2024-03-07T13:45:25;8.20;;;4.60;;
55461;SDS011;41327;45.102;20.624;2024-03-07T13:47:56;6.80;;;4.25;;
55461;SDS011;41327;45.102;20.624;2024-03-07T13:50:24;9.43;;;4.38;;
55461;SDS011;41327;45.102;20.624;2024-03-07T13:52:51;7.15;;;4.32;;
55461;SDS011;41327;45.102;20.624;2024-03-07T14:27:34;7.63;;;4.95;;
55461;SDS011;41327;45.102;20.624;2024-03-07T14:32:56;8.68;;;4.47;;
55461;SDS011;41327;45.102;20.624;2024-03-07T14:35:32;7.60;;;4.28;;
55461;SDS011;41327;45.102;20.624;2024-03-07T14:38:06;7.13;;;4.22;;
55461;SDS011;41327;45.102;20.624;2024-03-07T14:40:47;7.70;;;4.30;;
55461;SDS011;41327;45.102;20.624;2024-03-07T14:43:14;6.57;;;4.40;;
55461;SDS011;41327;45.102;20.624;2024-03-07T14:45:42;7.13;;;4.57;;
55461;SDS011;41327;45.102;20.624;2024-03-07T14:48:08;7.97;;;5.30;;
55461;SDS011;41327;45.102;20.624;2024-03-07T14:50:35;9.85;;;5.63;;
55461;SDS011;41327;45.102;20.624;2024-03-07T14:53:03;8.45;;;5.18;;
55461;SDS011;41327;45.102;20.624;2024-03-07T14:55:30;7.65;;;4.65;;
55461;SDS011;41327;45.102;20.624;2024-03-07T14:57:56;6.68;;;4.90;;
55461;SDS011;41327;45.102;20.624;2024-03-07T15:00:23;7.63;;;4.70;;
55461;SDS011;41327;45.102;20.624;2024-03-07T15:02:52;6.72;;;5.00;;
55461;SDS011;41327;45.102;20.624;2024-03-07T15:05:22;7.88;;;5.03;;
55461;SDS011;41327;45.102;20.624;2024-03-07T15:07:52;7.80;;;5.22;;
55461;SDS011;41327;45.102;20.624;2024-03-07T15:10:38;7.80;;;5.20;;
55461;SDS011;41327;45.102;20.624;2024-03-07T15:13:08;7.63;;;4.40;;
55461;SDS011;41327;45.102;20.624;2024-03-07T15:15:37;8.13;;;5.57;;
55461;SDS011;41327;45.102;20.624;2024-03-07T15:18:05;7.00;;;4.72;;
55461;SDS011;41327;45.102;20.624;2024-03-07T15:20:31;8.10;;;5.43;;
55461;SDS011;41327;45.102;20.624;2024-03-07T15:22:57;8.32;;;5.15;;
55461;SDS011;41327;45.102;20.624;2024-03-07T15:25:24;7.60;;;5.68;;